sensor_id;sensor_type;location;lat;lon;timestamp;P1;durP1;ratioP1;P2;durP2;ratioP2
16880;SDS011;8557;52.068;5.198;2023-03-01T00:02:21;10.43;;;8.90;;
16880;SDS011;8557;52.068;5.198;2023-03-01T00:04:48;9.98;;;8.95;;
16880;SDS011;8557;52.068;5.198;2023-03-01T00:07:15;9.90;;;8.63;;
16880;SDS011;8557;52.068;5.198;2023-03-01T00:09:42;12.88;;;8.55;;
16880;SDS011;8557;52.068;5.198;2023-03-01T00:12:12;10.50;;;8.50;;
16880;SDS011;8557;52.068;5.198;2023-03-01T00:14:39;10.05;;;8.60;;
16880;SDS011;8557;52.068;5.198;2023-03-01T00:17:06;9.75;;;8.75;;
16880;SDS011;8557;52.068;5.198;2023-03-01T00:19:33;10.90;;;9.27;;
16880;SDS011;8557;52.068;5.198;2023-03-01T00:22:00;10.38;;;9.38;;
16880;SDS011;8557;52.068;5.198;2023-03-01T00:24:26;11.18;;;9.30;;
16880;SDS011;8557;52.068;5.198;2023-03-01T00:26:53;12.02;;;9.23;;
16880;SDS011;8557;52.068;5.198;2023-03-01T00:29:22;12.88;;;10.05;;
16880;SDS011;8557;52.068;5.198;2023-03-01T00:31:49;11.32;;;9.63;;
16880;SDS011;8557;52.068;5.198;2023-03-01T00:34:17;11.13;;;9.27;;
16880;SDS011;8557;52.068;5.198;2023-03-01T00:36:44;11.85;;;9.32;;
16880;SDS011;8557;52.068;5.198;2023-03-01T00:39:12;13.10;;;9.63;;
16880;SDS011;8557;52.068;5.198;2023-03-01T00:41:40;11.25;;;9.65;;
16880;SDS011;8557;52.068;5.198;2023-03-01T00:44:08;12.07;;;9.77;;
16880;SDS011;8557;52.068;5.198;2023-03-01T00:46:36;12.95;;;9.60;;
16880;SDS011;8557;52.068;5.198;2023-03-01T00:49:03;10.73;;;9.35;;
16880;SDS011;8557;52.068;5.198;2023-03-01T00:51:31;10.70;;;9.25;;
16880;SDS011;8557;52.068;5.198;2023-03-01T00:53:58;12.63;;;9.40;;
16880;SDS011;8557;52.068;5.198;2023-03-01T00:56:26;10.07;;;8.98;;
16880;SDS011;8557;52.068;5.198;2023-03-01T00:58:54;12.30;;;9.80;;
16880;SDS011;8557;52.068;5.198;2023-03-01T01:01:22;12.35;;;9.13;;
16880;SDS011;8557;52.068;5.198;2023-03-01T01:03:54;11.48;;;9.48;;
16880;SDS011;8557;52.068;5.198;2023-03-01T01:06:23;11.25;;;10.02;;
16880;SDS011;8557;52.068;5.198;2023-03-01T01:08:51;14.05;;;9.98;;
16880;SDS011;8557;52.068;5.198;2023-03-01T01:11:19;11.40;;;9.95;;
16880;SDS011;8557;52.068;5.198;2023-03-01T01:13:46;12.98;;;10.30;;
16880;SDS011;8557;52.068;5.198;2023-03-01T01:16:15;12.65;;;10.25;;
16880;SDS011;8557;52.068;5.198;2023-03-01T01:18:43;12.20;;;9.73;;
16880;SDS011;8557;52.068;5.198;2023-03-01T01:21:13;11.60;;;9.63;;
16880;SDS011;8557;52.068;5.198;2023-03-01T01:23:41;12.52;;;10.27;;
16880;SDS011;8557;52.068;5.198;2023-03-01T01:26:10;12.57;;;10.52;;
16880;SDS011;8557;52.068;5.198;2023-03-01T01:28:39;12.82;;;10.93;;
16880;SDS011;8557;52.068;5.198;2023-03-01T01:31:06;11.88;;;10.63;;
16880;SDS011;8557;52.068;5.198;2023-03-01T01:33:35;13.45;;;10.68;;
16880;SDS011;8557;52.068;5.198;2023-03-01T01:36:02;11.85;;;10.27;;
16880;SDS011;8557;52.068;5.198;2023-03-01T01:38:31;12.75;;;11.02;;
16880;SDS011;8557;52.068;5.198;2023-03-01T01:40:58;15.88;;;11.48;;
16880;SDS011;8557;52.068;5.198;2023-03-01T01:43:26;14.82;;;11.10;;
16880;SDS011;8557;52.068;5.198;2023-03-01T01:45:54;13.18;;;10.65;;
16880;SDS011;8557;52.068;5.198;2023-03-01T01:48:24;17.10;;;11.88;;
16880;SDS011;8557;52.068;5.198;2023-03-01T01:51:06;14.17;;;11.57;;
16880;SDS011;8557;52.068;5.198;2023-03-01T01:53:39;13.27;;;10.80;;
16880;SDS011;8557;52.068;5.198;2023-03-01T01:56:09;14.15;;;11.52;;
16880;SDS011;8557;52.068;5.198;2023-03-01T01:58:38;15.80;;;11.75;;
16880;SDS011;8557;52.068;5.198;2023-03-01T02:01:07;14.70;;;11.57;;
16880;SDS011;8557;52.068;5.198;2023-03-01T02:03:35;14.43;;;11.45;;
16880;SDS011;8557;52.068;5.198;2023-03-01T02:06:08;12.93;;;10.93;;
16880;SDS011;8557;52.068;5.198;2023-03-01T02:08:41;13.63;;;11.52;;
16880;SDS011;8557;52.068;5.198;2023-03-01T02:11:09;14.47;;;11.30;;
16880;SDS011;8557;52.068;5.198;2023-03-01T02:13:39;14.88;;;11.30;;
16880;SDS011;8557;52.068;5.198;2023-03-01T02:16:08;12.75;;;11.30;;
16880;SDS011;8557;52.068;5.198;2023-03-01T02:18:37;14.03;;;11.90;;
16880;SDS011;8557;52.068;5.198;2023-03-01T02:21:10;18.90;;;12.50;;
16880;SDS011;8557;52.068;5.198;2023-03-01T02:23:45;17.58;;;12.52;;
16880;SDS011;8557;52.068;5.198;2023-03-01T02:26:15;17.40;;;12.83;;
16880;SDS011;8557;52.068;5.198;2023-03-01T02:28:48;14.38;;;12.38;;
16880;SDS011;8557;52.068;5.198;2023-03-01T02:31:16;16.67;;;12.23;;
16880;SDS011;8557;52.068;5.198;2023-03-01T02:34:02;16.53;;;11.77;;
16880;SDS011;8557;52.068;5.198;2023-03-01T02:36:32;15.50;;;12.07;;
16880;SDS011;8557;52.068;5.198;2023-03-01T02:39:03;14.98;;;12.23;;
16880;SDS011;8557;52.068;5.198;2023-03-01T02:41:34;15.77;;;13.27;;
16880;SDS011;8557;52.068;5.198;2023-03-01T02:44:04;15.95;;;13.02;;
16880;SDS011;8557;52.068;5.198;2023-03-01T02:46:31;14.83;;;12.77;;
16880;SDS011;8557;52.068;5.198;2023-03-01T02:48:58;16.83;;;13.30;;
16880;SDS011;8557;52.068;5.198;2023-03-01T02:51:39;14.83;;;12.57;;
16880;SDS011;8557;52.068;5.198;2023-03-01T02:54:36;15.27;;;12.33;;
16880;SDS011;8557;52.068;5.198;2023-03-01T02:57:07;17.80;;;12.82;;
16880;SDS011;8557;52.068;5.198;2023-03-01T02:59:36;15.67;;;12.47;;
16880;SDS011;8557;52.068;5.198;2023-03-01T03:02:05;16.05;;;13.30;;
16880;SDS011;8557;52.068;5.198;2023-03-01T03:04:32;15.00;;;12.18;;
16880;SDS011;8557;52.068;5.198;2023-03-01T03:07:00;14.57;;;12.73;;
16880;SDS011;8557;52.068;5.198;2023-03-01T03:09:27;15.82;;;12.98;;
16880;SDS011;8557;52.068;5.198;2023-03-01T03:11:54;15.83;;;11.97;;
16880;SDS011;8557;52.068;5.198;2023-03-01T03:14:21;15.90;;;12.07;;
16880;SDS011;8557;52.068;5.198;2023-03-01T03:16:50;16.33;;;11.90;;
16880;SDS011;8557;52.068;5.198;2023-03-01T03:19:17;14.27;;;12.02;;
16880;SDS011;8557;52.068;5.198;2023-03-01T03:21:44;13.77;;;11.80;;
16880;SDS011;8557;52.068;5.198;2023-03-01T03:24:12;15.50;;;12.27;;
16880;SDS011;8557;52.068;5.198;2023-03-01T03:26:38;15.13;;;12.20;;
16880;SDS011;8557;52.068;5.198;2023-03-01T03:29:06;14.13;;;12.03;;
16880;SDS011;8557;52.068;5.198;2023-03-01T03:31:32;14.93;;;12.73;;
16880;SDS011;8557;52.068;5.198;2023-03-01T03:34:01;15.80;;;11.82;;
16880;SDS011;8557;52.068;5.198;2023-03-01T03:36:28;13.13;;;11.47;;
16880;SDS011;8557;52.068;5.198;2023-03-01T03:38:55;17.77;;;12.63;;
16880;SDS011;8557;52.068;5.198;2023-03-01T03:41:22;14.67;;;12.30;;
16880;SDS011;8557;52.068;5.198;2023-03-01T03:43:48;15.23;;;12.00;;
16880;SDS011;8557;52.068;5.198;2023-03-01T03:46:15;14.73;;;12.03;;
16880;SDS011;8557;52.068;5.198;2023-03-01T03:48:43;18.73;;;12.30;;
16880;SDS011;8557;52.068;5.198;2023-03-01T03:51:13;16.40;;;11.90;;
16880;SDS011;8557;52.068;5.198;2023-03-01T03:53:41;15.63;;;11.97;;
16880;SDS011;8557;52.068;5.198;2023-03-01T03:56:08;17.07;;;12.80;;
16880;SDS011;8557;52.068;5.198;2023-03-01T03:58:36;14.13;;;12.20;;
16880;SDS011;8557;52.068;5.198;2023-03-01T04:01:03;14.80;;;12.17;;
16880;SDS011;8557;52.068;5.198;2023-03-01T04:03:31;17.50;;;13.33;;
16880;SDS011;8557;52.068;5.198;2023-03-01T04:06:00;17.63;;;12.85;;
16880;SDS011;8557;52.068;5.198;2023-03-01T04:08:30;15.40;;;12.40;;
16880;SDS011;8557;52.068;5.198;2023-03-01T04:10:58;15.67;;;11.77;;
16880;SDS011;8557;52.068;5.198;2023-03-01T04:13:48;15.30;;;12.40;;
16880;SDS011;8557;52.068;5.198;2023-03-01T04:16:15;16.27;;;12.87;;
16880;SDS011;8557;52.068;5.198;2023-03-01T04:18:42;17.17;;;12.83;;
16880;SDS011;8557;52.068;5.198;2023-03-01T04:21:10;15.73;;;12.53;;
16880;SDS011;8557;52.068;5.198;2023-03-01T04:23:38;15.30;;;11.60;;
16880;SDS011;8557;52.068;5.198;2023-03-01T04:26:06;15.63;;;12.20;;
16880;SDS011;8557;52.068;5.198;2023-03-01T04:28:34;15.87;;;12.23;;
16880;SDS011;8557;52.068;5.198;2023-03-01T04:31:03;14.27;;;12.00;;
16880;SDS011;8557;52.068;5.198;2023-03-01T04:33:38;15.30;;;12.50;;
16880;SDS011;8557;52.068;5.198;2023-03-01T04:36:07;14.80;;;12.17;;
16880;SDS011;8557;52.068;5.198;2023-03-01T04:38:34;18.07;;;12.93;;
16880;SDS011;8557;52.068;5.198;2023-03-01T04:41:03;15.70;;;12.70;;
16880;SDS011;8557;52.068;5.198;2023-03-01T04:43:31;16.57;;;13.43;;
16880;SDS011;8557;52.068;5.198;2023-03-01T04:46:02;15.60;;;12.67;;
16880;SDS011;8557;52.068;5.198;2023-03-01T04:48:31;16.90;;;12.73;;
16880;SDS011;8557;52.068;5.198;2023-03-01T04:50:58;14.40;;;12.40;;
16880;SDS011;8557;52.068;5.198;2023-03-01T04:53:25;19.87;;;13.33;;
16880;SDS011;8557;52.068;5.198;2023-03-01T04:55:53;14.87;;;12.47;;
16880;SDS011;8557;52.068;5.198;2023-03-01T04:58:21;17.40;;;13.50;;
16880;SDS011;8557;52.068;5.198;2023-03-01T05:00:49;16.30;;;13.40;;
16880;SDS011;8557;52.068;5.198;2023-03-01T05:03:16;18.00;;;13.23;;
16880;SDS011;8557;52.068;5.198;2023-03-01T05:05:43;16.27;;;13.20;;
16880;SDS011;8557;52.068;5.198;2023-03-01T05:08:11;15.10;;;12.27;;
16880;SDS011;8557;52.068;5.198;2023-03-01T05:10:43;17.37;;;12.87;;
16880;SDS011;8557;52.068;5.198;2023-03-01T05:13:12;16.80;;;12.40;;
16880;SDS011;8557;52.068;5.198;2023-03-01T05:15:41;16.43;;;13.23;;
16880;SDS011;8557;52.068;5.198;2023-03-01T05:18:08;14.70;;;11.93;;
16880;SDS011;8557;52.068;5.198;2023-03-01T05:20:36;15.87;;;12.90;;
16880;SDS011;8557;52.068;5.198;2023-03-01T05:23:04;16.37;;;12.53;;
16880;SDS011;8557;52.068;5.198;2023-03-01T05:25:31;23.17;;;13.97;;
16880;SDS011;8557;52.068;5.198;2023-03-01T05:28:00;16.13;;;11.97;;
16880;SDS011;8557;52.068;5.198;2023-03-01T05:30:29;13.90;;;12.30;;
16880;SDS011;8557;52.068;5.198;2023-03-01T05:32:59;16.53;;;13.40;;
16880;SDS011;8557;52.068;5.198;2023-03-01T05:35:26;15.87;;;12.57;;
16880;SDS011;8557;52.068;5.198;2023-03-01T05:37:54;15.77;;;13.00;;
16880;SDS011;8557;52.068;5.198;2023-03-01T05:40:21;17.47;;;13.20;;
16880;SDS011;8557;52.068;5.198;2023-03-01T05:42:52;16.57;;;13.00;;
16880;SDS011;8557;52.068;5.198;2023-03-01T05:45:20;15.30;;;12.10;;
16880;SDS011;8557;52.068;5.198;2023-03-01T05:47:48;15.83;;;12.37;;
16880;SDS011;8557;52.068;5.198;2023-03-01T05:50:18;16.83;;;13.10;;
16880;SDS011;8557;52.068;5.198;2023-03-01T05:52:47;16.70;;;13.27;;
16880;SDS011;8557;52.068;5.198;2023-03-01T05:55:16;16.13;;;12.37;;
16880;SDS011;8557;52.068;5.198;2023-03-01T05:57:44;17.20;;;12.80;;
16880;SDS011;8557;52.068;5.198;2023-03-01T06:00:12;15.17;;;12.30;;
16880;SDS011;8557;52.068;5.198;2023-03-01T06:02:40;15.97;;;12.03;;
16880;SDS011;8557;52.068;5.198;2023-03-01T06:05:08;16.33;;;13.17;;
16880;SDS011;8557;52.068;5.198;2023-03-01T06:07:38;16.37;;;12.90;;
16880;SDS011;8557;52.068;5.198;2023-03-01T06:10:06;16.67;;;13.00;;
16880;SDS011;8557;52.068;5.198;2023-03-01T06:12:35;16.30;;;12.53;;
16880;SDS011;8557;52.068;5.198;2023-03-01T06:15:03;17.50;;;12.93;;
16880;SDS011;8557;52.068;5.198;2023-03-01T06:17:33;17.80;;;13.20;;
16880;SDS011;8557;52.068;5.198;2023-03-01T06:20:02;16.77;;;13.13;;
16880;SDS011;8557;52.068;5.198;2023-03-01T06:22:30;16.43;;;12.43;;
16880;SDS011;8557;52.068;5.198;2023-03-01T06:24:58;16.20;;;12.23;;
16880;SDS011;8557;52.068;5.198;2023-03-01T06:27:25;17.13;;;13.00;;
16880;SDS011;8557;52.068;5.198;2023-03-01T06:29:52;16.53;;;12.70;;
16880;SDS011;8557;52.068;5.198;2023-03-01T06:32:19;15.10;;;12.70;;
16880;SDS011;8557;52.068;5.198;2023-03-01T06:34:46;19.50;;;12.23;;
16880;SDS011;8557;52.068;5.198;2023-03-01T06:37:13;17.63;;;13.00;;
16880;SDS011;8557;52.068;5.198;2023-03-01T06:39:39;18.93;;;12.93;;
16880;SDS011;8557;52.068;5.198;2023-03-01T06:42:08;17.33;;;13.03;;
16880;SDS011;8557;52.068;5.198;2023-03-01T06:44:36;17.93;;;13.00;;
16880;SDS011;8557;52.068;5.198;2023-03-01T06:47:03;16.93;;;12.93;;
16880;SDS011;8557;52.068;5.198;2023-03-01T06:49:30;16.63;;;12.83;;
16880;SDS011;8557;52.068;5.198;2023-03-01T06:51:57;17.10;;;13.40;;
16880;SDS011;8557;52.068;5.198;2023-03-01T06:54:24;17.07;;;13.47;;
16880;SDS011;8557;52.068;5.198;2023-03-01T06:56:51;15.37;;;12.13;;
16880;SDS011;8557;52.068;5.198;2023-03-01T06:59:20;16.40;;;12.60;;
16880;SDS011;8557;52.068;5.198;2023-03-01T07:01:46;15.87;;;12.53;;
16880;SDS011;8557;52.068;5.198;2023-03-01T07:04:13;15.97;;;12.43;;
16880;SDS011;8557;52.068;5.198;2023-03-01T07:06:40;20.17;;;13.10;;
16880;SDS011;8557;52.068;5.198;2023-03-01T07:09:07;17.63;;;13.00;;
16880;SDS011;8557;52.068;5.198;2023-03-01T07:11:34;17.50;;;13.30;;
16880;SDS011;8557;52.068;5.198;2023-03-01T07:14:01;16.73;;;12.40;;
16880;SDS011;8557;52.068;5.198;2023-03-01T07:16:29;15.73;;;12.50;;
16880;SDS011;8557;52.068;5.198;2023-03-01T07:18:56;13.97;;;11.47;;
16880;SDS011;8557;52.068;5.198;2023-03-01T07:21:23;17.17;;;12.30;;
16880;SDS011;8557;52.068;5.198;2023-03-01T07:23:49;17.73;;;12.43;;
16880;SDS011;8557;52.068;5.198;2023-03-01T07:26:16;16.70;;;13.17;;
16880;SDS011;8557;52.068;5.198;2023-03-01T07:28:43;17.65;;;12.73;;
16880;SDS011;8557;52.068;5.198;2023-03-01T07:31:10;17.30;;;12.77;;
16880;SDS011;8557;52.068;5.198;2023-03-01T07:33:38;17.97;;;12.90;;
16880;SDS011;8557;52.068;5.198;2023-03-01T07:36:05;16.20;;;12.10;;
16880;SDS011;8557;52.068;5.198;2023-03-01T07:38:32;16.03;;;12.27;;
16880;SDS011;8557;52.068;5.198;2023-03-01T07:41:00;15.57;;;12.48;;
16880;SDS011;8557;52.068;5.198;2023-03-01T07:43:28;17.13;;;12.80;;
16880;SDS011;8557;52.068;5.198;2023-03-01T07:45:57;16.43;;;12.70;;
16880;SDS011;8557;52.068;5.198;2023-03-01T07:48:25;16.57;;;12.83;;
16880;SDS011;8557;52.068;5.198;2023-03-01T07:50:53;17.75;;;13.05;;
16880;SDS011;8557;52.068;5.198;2023-03-01T07:53:20;17.67;;;13.10;;
16880;SDS011;8557;52.068;5.198;2023-03-01T07:55:47;16.48;;;12.52;;
16880;SDS011;8557;52.068;5.198;2023-03-01T07:58:14;16.73;;;12.48;;
16880;SDS011;8557;52.068;5.198;2023-03-01T08:00:41;18.30;;;12.93;;
16880;SDS011;8557;52.068;5.198;2023-03-01T08:03:07;17.85;;;13.35;;
16880;SDS011;8557;52.068;5.198;2023-03-01T08:05:34;19.00;;;13.30;;
16880;SDS011;8557;52.068;5.198;2023-03-01T08:08:03;17.35;;;13.32;;
16880;SDS011;8557;52.068;5.198;2023-03-01T08:10:31;14.73;;;12.13;;
16880;SDS011;8557;52.068;5.198;2023-03-01T08:12:57;15.65;;;12.63;;
16880;SDS011;8557;52.068;5.198;2023-03-01T08:15:24;14.30;;;11.30;;
16880;SDS011;8557;52.068;5.198;2023-03-01T08:17:51;16.58;;;11.95;;
16880;SDS011;8557;52.068;5.198;2023-03-01T08:20:18;14.95;;;11.05;;
16880;SDS011;8557;52.068;5.198;2023-03-01T08:22:45;17.05;;;11.95;;
16880;SDS011;8557;52.068;5.198;2023-03-01T08:25:13;15.73;;;11.13;;
16880;SDS011;8557;52.068;5.198;2023-03-01T08:27:39;15.35;;;11.55;;
16880;SDS011;8557;52.068;5.198;2023-03-01T08:30:07;12.98;;;10.20;;
16880;SDS011;8557;52.068;5.198;2023-03-01T08:32:35;13.55;;;10.65;;
16880;SDS011;8557;52.068;5.198;2023-03-01T08:35:03;12.18;;;10.55;;
16880;SDS011;8557;52.068;5.198;2023-03-01T08:37:30;13.32;;;10.38;;
16880;SDS011;8557;52.068;5.198;2023-03-01T08:39:58;11.38;;;9.50;;
16880;SDS011;8557;52.068;5.198;2023-03-01T08:42:26;10.77;;;8.65;;
16880;SDS011;8557;52.068;5.198;2023-03-01T08:44:53;13.40;;;8.88;;
16880;SDS011;8557;52.068;5.198;2023-03-01T08:47:20;9.82;;;7.82;;
16880;SDS011;8557;52.068;5.198;2023-03-01T08:49:46;11.25;;;8.23;;
16880;SDS011;8557;52.068;5.198;2023-03-01T08:52:15;9.35;;;7.85;;
16880;SDS011;8557;52.068;5.198;2023-03-01T08:54:42;10.48;;;7.72;;
16880;SDS011;8557;52.068;5.198;2023-03-01T08:57:08;9.35;;;7.53;;
16880;SDS011;8557;52.068;5.198;2023-03-01T08:59:36;9.93;;;7.13;;
16880;SDS011;8557;52.068;5.198;2023-03-01T09:02:03;8.35;;;6.93;;
16880;SDS011;8557;52.068;5.198;2023-03-01T09:04:30;8.68;;;6.95;;
16880;SDS011;8557;52.068;5.198;2023-03-01T09:06:58;8.43;;;6.60;;
16880;SDS011;8557;52.068;5.198;2023-03-01T09:09:25;7.85;;;6.88;;
16880;SDS011;8557;52.068;5.198;2023-03-01T09:11:52;10.82;;;7.45;;
16880;SDS011;8557;52.068;5.198;2023-03-01T09:14:18;9.43;;;7.25;;
16880;SDS011;8557;52.068;5.198;2023-03-01T09:16:46;10.07;;;7.50;;
16880;SDS011;8557;52.068;5.198;2023-03-01T09:19:13;8.32;;;7.13;;
16880;SDS011;8557;52.068;5.198;2023-03-01T09:21:43;8.73;;;7.70;;
16880;SDS011;8557;52.068;5.198;2023-03-01T09:24:18;9.00;;;7.30;;
16880;SDS011;8557;52.068;5.198;2023-03-01T09:26:46;8.75;;;6.60;;
16880;SDS011;8557;52.068;5.198;2023-03-01T09:29:13;7.57;;;6.55;;
16880;SDS011;8557;52.068;5.198;2023-03-01T09:31:40;8.60;;;6.38;;
16880;SDS011;8557;52.068;5.198;2023-03-01T09:34:09;9.35;;;5.97;;
16880;SDS011;8557;52.068;5.198;2023-03-01T09:36:36;7.03;;;5.70;;
16880;SDS011;8557;52.068;5.198;2023-03-01T09:39:03;6.90;;;5.18;;
16880;SDS011;8557;52.068;5.198;2023-03-01T09:44:27;5.32;;;4.53;;
16880;SDS011;8557;52.068;5.198;2023-03-01T09:46:58;4.20;;;3.47;;
16880;SDS011;8557;52.068;5.198;2023-03-01T09:49:28;4.57;;;3.50;;
16880;SDS011;8557;52.068;5.198;2023-03-01T09:51:58;4.28;;;3.80;;
16880;SDS011;8557;52.068;5.198;2023-03-01T09:54:27;4.70;;;3.88;;
16880;SDS011;8557;52.068;5.198;2023-03-01T09:57:01;7.20;;;3.78;;
16880;SDS011;8557;52.068;5.198;2023-03-01T09:59:44;5.65;;;3.53;;
16880;SDS011;8557;52.068;5.198;2023-03-01T10:02:25;4.00;;;3.25;;
16880;SDS011;8557;52.068;5.198;2023-03-01T10:04:59;4.95;;;3.38;;
16880;SDS011;8557;52.068;5.198;2023-03-01T10:07:40;4.40;;;3.85;;
16880;SDS011;8557;52.068;5.198;2023-03-01T10:10:16;5.05;;;3.55;;
16880;SDS011;8557;52.068;5.198;2023-03-01T10:12:51;5.75;;;4.00;;
16880;SDS011;8557;52.068;5.198;2023-03-01T10:15:19;13.55;;;8.15;;
16880;SDS011;8557;52.068;5.198;2023-03-01T10:17:52;7.38;;;5.05;;
16880;SDS011;8557;52.068;5.198;2023-03-01T10:20:25;6.28;;;3.58;;
16880;SDS011;8557;52.068;5.198;2023-03-01T10:22:56;5.70;;;3.50;;
16880;SDS011;8557;52.068;5.198;2023-03-01T10:25:25;4.72;;;3.65;;
16880;SDS011;8557;52.068;5.198;2023-03-01T10:28:10;4.82;;;3.45;;
16880;SDS011;8557;52.068;5.198;2023-03-01T10:30:43;5.05;;;3.38;;
16880;SDS011;8557;52.068;5.198;2023-03-01T10:33:13;4.78;;;3.78;;
16880;SDS011;8557;52.068;5.198;2023-03-01T10:35:44;6.38;;;3.83;;
16880;SDS011;8557;52.068;5.198;2023-03-01T10:38:12;4.50;;;3.58;;
16880;SDS011;8557;52.068;5.198;2023-03-01T10:40:49;6.45;;;3.75;;
16880;SDS011;8557;52.068;5.198;2023-03-01T10:43:17;7.47;;;4.18;;
16880;SDS011;8557;52.068;5.198;2023-03-01T10:45:44;4.55;;;3.65;;
16880;SDS011;8557;52.068;5.198;2023-03-01T10:48:12;3.97;;;3.58;;
16880;SDS011;8557;52.068;5.198;2023-03-01T10:50:41;5.40;;;3.47;;
16880;SDS011;8557;52.068;5.198;2023-03-01T10:53:23;4.03;;;3.40;;
16880;SDS011;8557;52.068;5.198;2023-03-01T10:55:57;4.45;;;3.10;;
16880;SDS011;8557;52.068;5.198;2023-03-01T10:58:26;4.10;;;3.05;;
16880;SDS011;8557;52.068;5.198;2023-03-01T11:00:54;4.07;;;3.42;;
16880;SDS011;8557;52.068;5.198;2023-03-01T11:03:23;4.75;;;3.30;;
16880;SDS011;8557;52.068;5.198;2023-03-01T11:05:59;4.55;;;3.63;;
16880;SDS011;8557;52.068;5.198;2023-03-01T11:08:33;4.38;;;3.65;;
16880;SDS011;8557;52.068;5.198;2023-03-01T11:11:07;4.38;;;3.47;;
16880;SDS011;8557;52.068;5.198;2023-03-01T11:13:50;6.95;;;3.80;;
16880;SDS011;8557;52.068;5.198;2023-03-01T11:16:26;4.10;;;3.70;;
16880;SDS011;8557;52.068;5.198;2023-03-01T11:18:56;7.38;;;3.70;;
16880;SDS011;8557;52.068;5.198;2023-03-01T11:21:24;5.28;;;3.45;;
16880;SDS011;8557;52.068;5.198;2023-03-01T11:23:55;4.05;;;3.50;;
16880;SDS011;8557;52.068;5.198;2023-03-01T11:26:24;4.70;;;3.00;;
16880;SDS011;8557;52.068;5.198;2023-03-01T11:28:52;4.13;;;3.33;;
16880;SDS011;8557;52.068;5.198;2023-03-01T11:31:23;4.47;;;3.28;;
16880;SDS011;8557;52.068;5.198;2023-03-01T11:33:53;4.07;;;3.67;;
16880;SDS011;8557;52.068;5.198;2023-03-01T11:36:25;4.28;;;3.47;;
16880;SDS011;8557;52.068;5.198;2023-03-01T11:39:14;5.50;;;3.80;;
16880;SDS011;8557;52.068;5.198;2023-03-01T11:41:50;3.70;;;3.33;;
16880;SDS011;8557;52.068;5.198;2023-03-01T11:44:28;4.22;;;3.50;;
16880;SDS011;8557;52.068;5.198;2023-03-01T11:52:44;3.75;;;3.00;;
16880;SDS011;8557;52.068;5.198;2023-03-01T11:55:32;4.40;;;2.60;;
16880;SDS011;8557;52.068;5.198;2023-03-01T11:58:20;4.25;;;2.70;;
16880;SDS011;8557;52.068;5.198;2023-03-01T12:01:17;3.22;;;2.28;;
16880;SDS011;8557;52.068;5.198;2023-03-01T12:03:55;6.50;;;2.60;;
16880;SDS011;8557;52.068;5.198;2023-03-01T12:06:38;2.78;;;2.47;;
16880;SDS011;8557;52.068;5.198;2023-03-01T12:09:30;4.60;;;3.03;;
16880;SDS011;8557;52.068;5.198;2023-03-01T12:12:14;4.10;;;3.08;;
16880;SDS011;8557;52.068;5.198;2023-03-01T12:15:18;2.97;;;2.67;;
16880;SDS011;8557;52.068;5.198;2023-03-01T12:18:15;5.03;;;2.63;;
16880;SDS011;8557;52.068;5.198;2023-03-01T12:20:58;3.40;;;2.60;;
16880;SDS011;8557;52.068;5.198;2023-03-01T12:23:44;3.13;;;2.55;;
16880;SDS011;8557;52.068;5.198;2023-03-01T12:26:20;5.13;;;2.53;;
16880;SDS011;8557;52.068;5.198;2023-03-01T12:31:58;3.42;;;2.72;;
16880;SDS011;8557;52.068;5.198;2023-03-01T12:34:37;3.83;;;2.90;;
16880;SDS011;8557;52.068;5.198;2023-03-01T12:37:18;2.90;;;2.60;;
16880;SDS011;8557;52.068;5.198;2023-03-01T12:39:59;2.75;;;2.47;;
16880;SDS011;8557;52.068;5.198;2023-03-01T12:42:44;3.33;;;3.03;;
16880;SDS011;8557;52.068;5.198;2023-03-01T12:45:30;3.10;;;2.80;;
16880;SDS011;8557;52.068;5.198;2023-03-01T12:48:20;3.55;;;3.03;;
16880;SDS011;8557;52.068;5.198;2023-03-01T12:50:57;3.42;;;3.00;;
16880;SDS011;8557;52.068;5.198;2023-03-01T12:53:28;5.50;;;3.38;;
16880;SDS011;8557;52.068;5.198;2023-03-01T12:55:58;3.88;;;3.05;;
16880;SDS011;8557;52.068;5.198;2023-03-01T12:58:29;3.33;;;3.03;;
16880;SDS011;8557;52.068;5.198;2023-03-01T13:01:08;4.20;;;3.30;;
16880;SDS011;8557;52.068;5.198;2023-03-01T13:03:52;12.43;;;3.38;;
16880;SDS011;8557;52.068;5.198;2023-03-01T13:06:30;3.75;;;3.33;;
16880;SDS011;8557;52.068;5.198;2023-03-01T13:09:04;3.50;;;3.20;;
16880;SDS011;8557;52.068;5.198;2023-03-01T13:11:41;4.75;;;3.20;;
16880;SDS011;8557;52.068;5.198;2023-03-01T13:17:30;4.07;;;3.15;;
16880;SDS011;8557;52.068;5.198;2023-03-01T13:19:58;3.30;;;3.00;;
16880;SDS011;8557;52.068;5.198;2023-03-01T13:22:27;4.15;;;3.00;;
16880;SDS011;8557;52.068;5.198;2023-03-01T13:25:00;4.07;;;3.10;;
16880;SDS011;8557;52.068;5.198;2023-03-01T13:27:37;4.03;;;3.10;;
16880;SDS011;8557;52.068;5.198;2023-03-01T13:30:12;3.80;;;2.85;;
16880;SDS011;8557;52.068;5.198;2023-03-01T13:33:33;3.90;;;3.00;;
16880;SDS011;8557;52.068;5.198;2023-03-01T13:36:06;3.85;;;3.20;;
16880;SDS011;8557;52.068;5.198;2023-03-01T13:38:36;4.75;;;3.05;;
16880;SDS011;8557;52.068;5.198;2023-03-01T13:41:06;3.88;;;3.25;;
16880;SDS011;8557;52.068;5.198;2023-03-01T13:43:34;4.95;;;3.50;;
16880;SDS011;8557;52.068;5.198;2023-03-01T13:46:07;4.50;;;3.22;;
16880;SDS011;8557;52.068;5.198;2023-03-01T13:48:37;4.07;;;3.03;;
16880;SDS011;8557;52.068;5.198;2023-03-01T13:53:40;4.00;;;3.60;;
16880;SDS011;8557;52.068;5.198;2023-03-01T13:56:10;6.47;;;4.20;;
16880;SDS011;8557;52.068;5.198;2023-03-01T13:58:46;4.32;;;3.60;;
16880;SDS011;8557;52.068;5.198;2023-03-01T14:01:22;5.88;;;3.50;;
16880;SDS011;8557;52.068;5.198;2023-03-01T14:03:50;4.55;;;3.70;;
16880;SDS011;8557;52.068;5.198;2023-03-01T14:06:19;4.43;;;3.50;;
16880;SDS011;8557;52.068;5.198;2023-03-01T14:08:49;3.85;;;3.35;;
16880;SDS011;8557;52.068;5.198;2023-03-01T14:11:29;3.58;;;3.13;;
16880;SDS011;8557;52.068;5.198;2023-03-01T14:14:13;4.40;;;3.72;;
16880;SDS011;8557;52.068;5.198;2023-03-01T14:17:08;4.72;;;3.33;;
16880;SDS011;8557;52.068;5.198;2023-03-01T14:19:45;3.72;;;3.22;;
16880;SDS011;8557;52.068;5.198;2023-03-01T14:22:17;3.95;;;3.28;;
16880;SDS011;8557;52.068;5.198;2023-03-01T14:24:54;4.70;;;3.53;;
16880;SDS011;8557;52.068;5.198;2023-03-01T14:27:23;4.10;;;3.35;;
16880;SDS011;8557;52.068;5.198;2023-03-01T14:29:55;3.92;;;3.55;;
16880;SDS011;8557;52.068;5.198;2023-03-01T14:32:26;6.82;;;3.67;;
16880;SDS011;8557;52.068;5.198;2023-03-01T14:34:54;3.85;;;3.30;;
16880;SDS011;8557;52.068;5.198;2023-03-01T14:37:23;3.83;;;3.05;;
16880;SDS011;8557;52.068;5.198;2023-03-01T14:39:52;6.00;;;3.42;;
16880;SDS011;8557;52.068;5.198;2023-03-01T14:42:20;4.40;;;3.22;;
16880;SDS011;8557;52.068;5.198;2023-03-01T14:44:49;4.43;;;3.50;;
16880;SDS011;8557;52.068;5.198;2023-03-01T14:47:22;3.60;;;3.20;;
16880;SDS011;8557;52.068;5.198;2023-03-01T14:49:56;3.50;;;3.20;;
16880;SDS011;8557;52.068;5.198;2023-03-01T14:52:26;3.83;;;3.42;;
16880;SDS011;8557;52.068;5.198;2023-03-01T14:54:59;4.07;;;3.05;;
16880;SDS011;8557;52.068;5.198;2023-03-01T14:57:28;3.80;;;3.40;;
16880;SDS011;8557;52.068;5.198;2023-03-01T14:59:55;3.95;;;3.47;;
16880;SDS011;8557;52.068;5.198;2023-03-01T15:02:27;3.88;;;3.38;;
16880;SDS011;8557;52.068;5.198;2023-03-01T15:04:56;3.58;;;3.22;;
16880;SDS011;8557;52.068;5.198;2023-03-01T15:07:27;4.15;;;3.30;;
16880;SDS011;8557;52.068;5.198;2023-03-01T15:09:56;5.10;;;3.40;;
16880;SDS011;8557;52.068;5.198;2023-03-01T15:12:25;4.20;;;3.35;;
16880;SDS011;8557;52.068;5.198;2023-03-01T15:15:01;4.03;;;3.50;;
16880;SDS011;8557;52.068;5.198;2023-03-01T15:17:50;4.50;;;3.42;;
16880;SDS011;8557;52.068;5.198;2023-03-01T15:20:20;4.18;;;3.78;;
16880;SDS011;8557;52.068;5.198;2023-03-01T15:22:50;4.30;;;3.53;;
16880;SDS011;8557;52.068;5.198;2023-03-01T15:25:18;5.80;;;3.70;;